Time;durP1;ratioP1;P1;durP2;ratioP2;P2;SDS_P1;SDS_P2;PMS_P1;PMS_P2;Temp;Humidity;BMP_temperature;BMP_pressure;BME280_temperature;BME280_humidity;BME280_pressure;Samples;Min_cycle;Max_cycle;Signal;HPM_P1;HPM_P2
2023/12/28 00:00:22;;;;;;;3.28;3.03;;;;;;;5.78;63.53;100737.59;4456923;32;33118;-81
2023/12/28 00:02:49;;;;;;;1.02;1.00;;;;;;;6.00;63.21;100733.06;4463279;32;33834;-80
2023/12/28 00:05:18;;;;;;;2.35;2.22;;;;;;;6.00;62.78;100735.69;4461245;32;32626;-81
2023/12/28 00:07:45;;;;;;;4.03;3.65;;;;;;;5.88;62.22;100740.12;4433664;32;31831;-80
2023/12/28 00:10:13;;;;;;;7.22;2.87;;;;;;;5.92;62.69;100741.00;4434646;32;32893;-80
2023/12/28 00:12:41;;;;;;;3.97;3.67;;;;;;;5.90;62.85;100741.00;4445514;32;33916;-81
2023/12/28 00:15:09;;;;;;;4.82;3.85;;;;;;;5.95;62.95;100740.12;4458093;32;33345;-80
2023/12/28 00:17:37;;;;;;;2.17;1.98;;;;;;;5.89;62.39;100736.62;4441922;32;32365;-81
2023/12/28 00:20:05;;;;;;;8.43;7.55;;;;;;;5.80;62.92;100735.84;4444697;32;34547;-81
2023/12/28 00:22:33;;;;;;;5.80;5.18;;;;;;;5.81;62.75;100734.97;4447861;32;34786;-81
2023/12/28 00:25:01;;;;;;;20.73;9.88;;;;;;;5.67;63.98;100739.47;4446812;32;33521;-81
2023/12/28 00:27:28;;;;;;;2.75;2.45;;;;;;;5.64;64.10;100745.59;4461059;32;33343;-81
2023/12/28 00:29:59;;;;;;;12.23;5.10;;;;;;;5.89;62.84;100741.00;4447466;32;32401;-81
2023/12/28 00:32:28;;;;;;;2.58;2.40;;;;;;;5.81;62.90;100745.44;4460132;32;34797;-81
2023/12/28 00:34:55;;;;;;;6.28;4.07;;;;;;;5.78;63.28;100750.72;4436182;32;32970;-81
2023/12/28 00:37:23;;;;;;;6.80;6.05;;;;;;;5.82;62.94;100748.03;4457995;32;32075;-81
2023/12/28 00:39:51;;;;;;;1.98;1.85;;;;;;;5.66;62.19;100746.47;4463174;32;33866;-81
2023/12/28 00:42:19;;;;;;;4.87;2.72;;;;;;;5.64;63.48;100745.59;4447716;32;33969;-81
2023/12/28 00:44:47;;;;;;;1.70;1.60;;;;;;;5.45;63.58;100749.25;4460436;32;33342;-82
2023/12/28 00:47:15;;;;;;;1.70;1.60;;;;;;;5.73;63.00;100747.25;4445824;32;32794;-81
2023/12/28 00:49:43;;;;;;;3.72;3.45;;;;;;;5.72;62.70;100748.16;4459988;32;33875;-81
2023/12/28 00:52:11;;;;;;;3.05;2.10;;;;;;;5.46;63.38;100746.63;4459124;32;34234;-80
2023/12/28 00:54:39;;;;;;;2.33;2.12;;;;;;;5.45;64.40;100751.84;4460339;32;33838;-81
2023/12/28 00:57:07;;;;;;;0.95;0.95;;;;;;;5.45;64.53;100755.34;4460239;32;34154;-80
2023/12/28 00:59:36;;;;;;;0.98;0.93;;;;;;;5.69;63.90;100754.28;4461158;32;33520;-80
2023/12/28 01:02:04;;;;;;;0.50;0.50;;;;;;;5.78;63.13;100754.19;4434072;32;34256;-80
2023/12/28 01:04:32;;;;;;;2.95;2.45;;;;;;;5.60;63.43;100749.09;4433411;32;32417;-80
2023/12/28 01:07:02;;;;;;;1.77;1.65;;;;;;;5.72;63.34;100751.63;4449580;32;32963;-80
2023/12/28 01:09:32;;;;;;;1.87;1.75;;;;;;;5.69;63.44;100756.91;4458877;32;34220;-81
2023/12/28 01:12:00;;;;;;;4.53;2.80;;;;;;;5.47;64.07;100758.84;4435282;32;33173;-82
2023/12/28 01:14:27;;;;;;;3.50;1.62;;;;;;;5.56;63.63;100757.91;4436993;32;32691;-80
2023/12/28 01:16:55;;;;;;;1.77;1.67;;;;;;;5.48;64.31;100764.94;4459154;32;32684;-80
2023/12/28 01:19:23;;;;;;;0.47;0.47;;;;;;;5.79;62.64;100761.19;4447094;32;33639;-79
2023/12/28 01:21:51;;;;;;;1.35;1.17;;;;;;;5.59;62.19;100757.84;4435698;32;32504;-79
2023/12/28 01:24:19;;;;;;;1.80;1.70;;;;;;;5.47;62.82;100753.59;4438292;32;32569;-80
2023/12/28 01:26:47;;;;;;;0.55;0.30;;;;;;;5.51;62.89;100759.69;4448344;32;34165;-80
2023/12/28 01:29:15;;;;;;;1.27;0.93;;;;;;;5.53;63.00;100753.53;4445579;32;33554;-81
2023/12/28 01:31:42;;;;;;;2.83;2.33;;;;;;;5.09;64.25;100753.88;4435083;32;32889;-79
2023/12/28 01:34:12;;;;;;;2.80;2.60;;;;;;;5.31;63.20;100749.34;4432838;32;33329;-80
2023/12/28 01:36:43;;;;;;;1.37;1.27;;;;;;;5.25;63.47;100745.00;4450808;32;33245;-79
2023/12/28 01:39:12;;;;;;;8.40;4.00;;;;;;;5.42;62.43;100733.56;4433452;32;33732;-80
2023/12/28 01:41:39;;;;;;;0.77;0.70;;;;;;;5.27;63.57;100730.19;4440091;32;33185;-80
2023/12/28 01:44:07;;;;;;;0.65;0.62;;;;;;;5.25;63.38;100731.06;4446521;32;34625;-80
2023/12/28 01:46:35;;;;;;;0.82;0.82;;;;;;;5.18;63.94;100732.84;4454304;32;32858;-81
2023/12/28 01:49:03;;;;;;;1.37;1.12;;;;;;;5.12;64.61;100730.25;4454281;32;33054;-80
2023/12/28 01:51:31;;;;;;;2.92;1.85;;;;;;;5.11;64.45;100733.75;4454903;32;33511;-80
2023/12/28 01:54:00;;;;;;;0.40;0.40;;;;;;;5.24;63.64;100724.94;4446398;32;33753;-80
2023/12/28 01:56:27;;;;;;;1.85;1.65;;;;;;;5.19;64.01;100731.97;4455033;32;34263;-81
2023/12/28 01:58:55;;;;;;;0.30;0.30;;;;;;;5.16;63.88;100720.66;4441282;32;33765;-81
2023/12/28 02:01:26;;;;;;;1.85;1.75;;;;;;;5.13;64.32;100724.16;4455104;32;33390;-81
2023/12/28 02:03:55;;;;;;;0.45;0.45;;;;;;;5.11;63.87;100718.94;4443064;32;34302;-81
2023/12/28 02:06:24;;;;;;;1.27;1.25;;;;;;;5.17;63.63;100709.28;4431174;32;33029;-81
2023/12/28 02:08:52;;;;;;;1.08;1.00;;;;;;;5.09;63.63;100711.97;4455116;32;33770;-82
2023/12/28 02:11:20;;;;;;;0.20;0.20;;;;;;;5.14;63.96;100713.69;4442015;32;33257;-82
2023/12/28 02:13:48;;;;;;;1.98;1.83;;;;;;;5.01;63.74;100706.78;4441320;32;32494;-82
2023/12/28 02:16:36;;;;;;;0.25;0.25;;;;;;;5.12;63.31;100699.72;4442190;32;31904;-82
2023/12/28 02:19:40;;;;;;;1.12;1.02;;;;;;;5.15;63.64;100704.06;4441935;32;33269;-82
2023/12/28 02:22:09;;;;;;;0.47;0.47;;;;;;;5.18;63.16;100709.28;4444116;32;33988;-82
2023/12/28 02:24:58;;;;;;;0.25;0.25;;;;;;;5.06;63.83;100707.63;4453965;32;34477;-82
2023/12/28 02:27:26;;;;;;;0.10;0.10;;;;;;;4.91;64.34;100709.47;4468692;32;34276;-82
2023/12/28 02:29:55;;;;;;;0.55;0.55;;;;;;;4.96;64.41;100699.84;4444895;32;32812;-82
2023/12/28 02:32:34;;;;;;;0.03;0.03;;;;;;;5.08;63.68;100698.03;4441290;32;32711;-81
2023/12/28 02:35:10;;;;;;;1.15;1.08;;;;;;;4.86;64.53;100694.66;4454614;32;33817;-81
2023/12/28 02:37:38;;;;;;;2.45;1.92;;;;;;;4.97;64.37;100691.09;4453927;32;33316;-81
2023/12/28 02:40:07;;;;;;;1.83;1.73;;;;;;;5.09;64.02;100683.19;4446977;32;33807;-82
2023/12/28 02:42:34;;;;;;;0.95;0.95;;;;;;;5.08;63.63;100681.41;4441823;32;34312;-82
2023/12/28 02:45:02;;;;;;;0.43;0.43;;;;;;;5.14;63.58;100676.16;4454181;32;32910;-82
2023/12/28 02:47:30;;;;;;;0.65;0.47;;;;;;;5.17;63.87;100676.12;4453917;32;33504;-81
2023/12/28 02:49:59;;;;;;;0.17;0.17;;;;;;;5.13;63.91;100677.03;4437809;32;32930;-81
2023/12/28 02:52:26;;;;;;;0.52;0.52;;;;;;;5.08;64.42;100684.03;4437767;32;33889;-82
2023/12/28 02:54:54;;;;;;;2.45;1.12;;;;;;;5.27;63.46;100671.69;4466399;32;33873;-82
2023/12/28 02:57:22;;;;;;;0.85;0.75;;;;;;;5.16;63.76;100673.53;4452339;32;34592;-82
2023/12/28 02:59:50;;;;;;;0.98;0.98;;;;;;;5.18;63.43;100683.12;4437380;32;32794;-81
2023/12/28 03:02:18;;;;;;;1.50;1.40;;;;;;;5.13;63.70;100680.53;4442541;32;33370;-81
2023/12/28 03:04:46;;;;;;;0.75;0.65;;;;;;;5.00;64.15;100676.25;4450447;32;33463;-79
2023/12/28 03:07:14;;;;;;;1.65;1.02;;;;;;;5.06;63.23;100668.34;4450617;32;33159;-80
2023/12/28 03:09:42;;;;;;;0.47;0.47;;;;;;;5.10;63.60;100666.59;4438495;32;33891;-79
2023/12/28 03:12:09;;;;;;;7.00;1.10;;;;;;;5.14;63.28;100665.69;4439432;32;34403;-79
2023/12/28 03:14:37;;;;;;;0.95;0.90;;;;;;;5.07;62.73;100670.09;4428430;32;33490;-80
2023/12/28 03:17:05;;;;;;;0.75;0.75;;;;;;;4.97;63.38;100663.19;4454697;32;33355;-79
2023/12/28 03:19:33;;;;;;;0.75;0.75;;;;;;;4.87;62.98;100661.50;4426278;32;34177;-80
2023/12/28 03:22:00;;;;;;;1.37;1.02;;;;;;;4.77;63.61;100665.06;4441611;32;33778;-79
2023/12/28 03:24:28;;;;;;;0.40;0.37;;;;;;;4.84;63.51;100656.28;4440916;32;33112;-79
2023/12/28 03:26:56;;;;;;;1.40;1.27;;;;;;;5.08;62.89;100653.53;4453521;32;31923;-79
2023/12/28 03:29:24;;;;;;;0.20;0.20;;;;;;;5.00;62.94;100659.69;4440781;32;33648;-80
2023/12/28 03:31:52;;;;;;;1.25;1.17;;;;;;;4.92;62.97;100646.66;4426948;32;33612;-79
2023/12/28 03:34:22;;;;;;;3.22;0.75;;;;;;;4.92;62.93;100643.16;4440442;32;34314;-79
2023/12/28 03:36:50;;;;;;;0.88;0.88;;;;;;;4.84;63.07;100637.97;4453441;32;33314;-81
2023/12/28 03:39:19;;;;;;;0.70;0.65;;;;;;;4.83;63.09;100628.38;4441729;32;34514;-79
2023/12/28 03:41:47;;;;;;;0.65;0.65;;;;;;;4.93;63.02;100634.41;4441568;32;33137;-80
2023/12/28 03:44:15;;;;;;;0.62;0.62;;;;;;;4.77;63.26;100639.78;4440238;32;33575;-80
2023/12/28 03:46:43;;;;;;;1.02;1.02;;;;;;;4.78;62.85;100631.03;4415055;32;32523;-79
2023/12/28 03:49:10;;;;;;;0.25;0.25;;;;;;;4.70;63.41;100631.97;4440552;32;34136;-80
2023/12/28 03:51:38;;;;;;;0.45;0.40;;;;;;;4.74;63.57;100624.09;4440041;32;34122;-79
2023/12/28 03:54:06;;;;;;;1.17;1.17;;;;;;;4.80;63.01;100626.69;4454392;32;34208;-80
2023/12/28 03:56:35;;;;;;;1.35;1.25;;;;;;;4.76;62.88;100619.72;4406283;32;33997;-80
2023/12/28 03:59:03;;;;;;;0.75;0.75;;;;;;;4.74;63.48;100612.75;4440192;32;33032;-79
2023/12/28 04:01:30;;;;;;;0.47;0.47;;;;;;;4.61;64.02;100620.69;4441251;32;33706;-79
2023/12/28 04:03:58;;;;;;;1.00;0.73;;;;;;;4.81;63.16;100615.31;4428385;32;33186;-79
2023/12/28 04:06:26;;;;;;;0.30;0.30;;;;;;;4.72;63.51;100614.53;4450815;32;32727;-79
2023/12/28 04:08:54;;;;;;;1.85;1.10;;;;;;;4.45;64.36;100620.78;4454306;32;33532;-80
2023/12/28 04:11:22;;;;;;;0.70;0.70;;;;;;;4.45;65.17;100623.41;4428431;32;33320;-80
2023/12/28 04:13:50;;;;;;;0.15;0.10;;;;;;;4.85;63.58;100617.03;4427885;32;32349;-80
2023/12/28 04:16:17;;;;;;;1.52;0.50;;;;;;;4.74;63.87;100615.38;4438269;32;33063;-80
2023/12/28 04:18:45;;;;;;;3.05;0.73;;;;;;;4.83;63.82;100618.78;4440717;32;33816;-80
2023/12/28 04:21:13;;;;;;;0.32;0.32;;;;;;;4.49;64.66;100609.44;4453227;32;33644;-80
2023/12/28 04:23:42;;;;;;;3.37;1.90;;;;;;;4.49;64.59;100625.12;4453897;32;33283;-81
2023/12/28 04:26:09;;;;;;;2.20;1.35;;;;;;;4.59;64.10;100606.75;4443173;32;32100;-81
2023/12/28 04:28:37;;;;;;;1.77;1.67;;;;;;;4.57;63.79;100607.66;4440326;32;34239;-81
2023/12/28 04:31:06;;;;;;;0.62;0.62;;;;;;;4.47;64.57;100611.22;4441134;32;32610;-81
2023/12/28 04:33:35;;;;;;;0.00;0.00;;;;;;;4.60;63.65;100600.66;4452204;32;33274;-80
2023/12/28 04:36:04;;;;;;;0.52;0.52;;;;;;;4.47;65.03;100598.12;4440171;32;32595;-80
2023/12/28 04:38:32;;;;;;;2.42;2.25;;;;;;;4.47;65.00;100600.75;4449420;32;36469;-80
2023/12/28 04:41:00;;;;;;;1.45;0.77;;;;;;;4.47;64.71;100593.75;4440127;32;34270;-80
2023/12/28 04:43:28;;;;;;;1.48;1.37;;;;;;;4.33;65.13;100595.59;4443478;32;33733;-80
2023/12/28 04:45:56;;;;;;;1.73;0.93;;;;;;;4.24;65.40;100591.28;4440974;32;33228;-81
2023/12/28 04:48:25;;;;;;;2.03;1.35;;;;;;;4.26;65.13;100591.25;4440845;32;32401;-80
2023/12/28 04:50:53;;;;;;;2.00;1.85;;;;;;;4.14;65.27;100589.59;4428048;32;32505;-80
2023/12/28 04:53:21;;;;;;;1.45;1.35;;;;;;;4.50;64.13;100585.00;4440378;32;34052;-80
2023/12/28 04:55:49;;;;;;;0.98;0.98;;;;;;;4.52;64.42;100585.87;4453642;32;33373;-81
2023/12/28 04:58:16;;;;;;;0.90;0.90;;;;;;;4.60;64.36;100579.72;4453544;32;34561;-82
2023/12/28 05:00:46;;;;;;;0.75;0.75;;;;;;;4.77;63.87;100583.97;4451625;32;34011;-81
2023/12/28 05:03:14;;;;;;;4.10;2.50;;;;;;;4.85;64.17;100585.66;4426294;32;32170;-80
2023/12/28 05:05:42;;;;;;;1.10;0.50;;;;;;;4.99;64.14;100593.37;4439358;32;33414;-80
2023/12/28 05:08:10;;;;;;;0.62;0.62;;;;;;;4.70;64.19;100588.38;4453310;32;33943;-80
2023/12/28 05:10:37;;;;;;;1.00;0.98;;;;;;;4.88;63.60;100587.34;4440057;32;33840;-80
2023/12/28 05:13:05;;;;;;;0.70;0.65;;;;;;;4.22;64.98;100585.16;4439609;32;33767;-80
2023/12/28 05:15:32;;;;;;;0.50;0.50;;;;;;;4.24;63.91;100596.50;4439874;32;33539;-80
2023/12/28 05:18:00;;;;;;;0.88;0.88;;;;;;;4.32;64.35;100599.94;4452154;32;34596;-80
2023/12/28 05:20:28;;;;;;;1.35;1.25;;;;;;;4.46;63.97;100606.81;4451137;32;34001;-80
2023/12/28 05:22:56;;;;;;;5.03;2.35;;;;;;;4.47;63.83;100605.97;4425781;32;32526;-80
2023/12/28 05:25:24;;;;;;;0.68;0.68;;;;;;;4.47;63.61;100608.59;4451001;32;33050;-80
2023/12/28 05:27:51;;;;;;;1.85;1.05;;;;;;;4.54;63.45;100599.81;4427202;32;32315;-80
2023/12/28 05:30:19;;;;;;;1.85;1.62;;;;;;;4.49;63.21;100598.97;4439467;32;32778;-80
2023/12/28 05:32:48;;;;;;;3.37;1.20;;;;;;;4.45;62.62;100605.97;4427261;32;32680;-80
2023/12/28 05:35:15;;;;;;;2.37;0.45;;;;;;;4.49;63.09;100609.44;4438250;32;31863;-80
2023/12/28 05:37:43;;;;;;;1.40;1.27;;;;;;;4.47;62.98;100603.34;4452870;32;33555;-80
2023/12/28 05:40:11;;;;;;;1.00;1.00;;;;;;;4.40;62.83;100599.03;4427046;32;33282;-80
2023/12/28 05:42:39;;;;;;;1.35;1.35;;;;;;;4.40;62.52;100597.28;4452993;32;34535;-81
2023/12/28 05:45:06;;;;;;;4.57;3.42;;;;;;;4.19;63.13;100593.03;4453418;32;33153;-82
2023/12/28 05:47:34;;;;;;;1.25;1.02;;;;;;;4.19;62.77;100603.50;4447561;32;33914;-82
2023/12/28 05:50:03;;;;;;;0.43;0.43;;;;;;;4.20;63.12;100609.59;4461935;32;34026;-83
2023/12/28 05:52:31;;;;;;;0.82;0.82;;;;;;;4.29;62.70;100605.19;4453983;32;33975;-81
2023/12/28 05:54:59;;;;;;;0.52;0.52;;;;;;;4.33;62.61;100613.87;4416463;32;32885;-81
2023/12/28 05:57:29;;;;;;;0.90;0.90;;;;;;;4.12;63.09;100617.47;4437552;32;32612;-82
2023/12/28 05:59:58;;;;;;;0.25;0.25;;;;;;;3.99;64.09;100623.63;4448532;32;33793;-81
2023/12/28 06:02:25;;;;;;;0.15;0.15;;;;;;;4.12;63.18;100626.16;4449665;32;33928;-82
2023/12/28 06:04:53;;;;;;;0.98;0.98;;;;;;;3.96;63.02;100610.56;4454855;32;32282;-81
2023/12/28 06:07:21;;;;;;;1.65;0.65;;;;;;;4.01;62.78;100608.81;4447443;32;32807;-80
2023/12/28 06:09:49;;;;;;;2.72;2.10;;;;;;;3.99;63.05;100605.34;4438611;32;33190;-80
2023/12/28 06:12:17;;;;;;;0.82;0.82;;;;;;;4.00;63.33;100599.22;4461375;32;32557;-80
2023/12/28 06:14:44;;;;;;;2.05;1.95;;;;;;;4.16;62.87;100597.41;4438086;32;32366;-80
2023/12/28 06:17:14;;;;;;;1.45;0.98;;;;;;;4.06;62.85;100612.25;4458289;32;33917;-80
2023/12/28 06:19:42;;;;;;;0.90;0.90;;;;;;;4.08;62.92;100610.50;4449049;32;33554;-80
2023/12/28 06:22:10;;;;;;;1.00;0.95;;;;;;;4.08;63.03;100619.25;4453720;32;32547;-80
2023/12/28 06:24:40;;;;;;;2.22;2.10;;;;;;;4.10;62.89;100616.59;4448635;32;32623;-80
2023/12/28 06:27:08;;;;;;;1.35;1.30;;;;;;;4.02;62.65;100618.38;4449121;32;32809;-80
2023/12/28 06:29:36;;;;;;;0.43;0.43;;;;;;;3.95;63.13;100603.63;4449973;32;32871;-79
2023/12/28 06:32:04;;;;;;;0.30;0.30;;;;;;;3.97;62.89;100597.50;4450134;32;32334;-80
2023/12/28 06:34:32;;;;;;;1.17;1.17;;;;;;;4.04;62.59;100600.97;4462439;32;34122;-79
2023/12/28 06:37:01;;;;;;;0.62;0.62;;;;;;;3.84;62.76;100591.44;4462510;32;33472;-80
2023/12/28 06:39:29;;;;;;;2.22;2.10;;;;;;;3.83;62.22;100602.75;4446554;32;32992;-79
2023/12/28 06:41:57;;;;;;;3.42;3.10;;;;;;;3.93;62.95;100615.78;4450145;32;33335;-80
2023/12/28 06:44:25;;;;;;;10.45;3.40;;;;;;;4.06;62.64;100627.94;4461573;32;33436;-79
2023/12/28 06:46:52;;;;;;;1.80;1.08;;;;;;;4.08;63.04;100636.63;4452205;32;32977;-80
2023/12/28 06:49:20;;;;;;;3.00;1.45;;;;;;;4.36;61.43;100640.87;4434146;32;32577;-80
2023/12/28 06:51:48;;;;;;;1.55;0.82;;;;;;;4.04;61.79;100650.63;4448237;32;34717;-80
2023/12/28 06:54:16;;;;;;;3.22;2.97;;;;;;;3.74;62.98;100660.25;4446692;32;33305;-80
2023/12/28 06:56:44;;;;;;;0.82;0.82;;;;;;;3.70;62.87;100665.50;4447871;32;33437;-80
2023/12/28 06:59:12;;;;;;;0.75;0.75;;;;;;;3.57;63.82;100656.81;4460103;32;33948;-81
2023/12/28 07:01:39;;;;;;;2.55;2.45;;;;;;;3.57;63.86;100654.22;4446009;32;32691;-80
2023/12/28 07:04:07;;;;;;;2.40;2.28;;;;;;;3.74;62.92;100647.19;4461369;32;33353;-79
2023/12/28 07:06:39;;;;;;;2.85;1.40;;;;;;;3.70;63.51;100655.91;4444218;32;33589;-79
2023/12/28 07:09:07;;;;;;;2.35;1.98;;;;;;;3.79;63.35;100650.66;4460986;32;33907;-79
2023/12/28 07:11:35;;;;;;;1.80;1.70;;;;;;;3.77;62.72;100647.19;4431202;32;33081;-80
2023/12/28 07:14:03;;;;;;;1.10;1.10;;;;;;;3.82;63.19;100639.34;4446549;32;33414;-80
2023/12/28 07:16:30;;;;;;;4.32;3.37;;;;;;;3.88;62.88;100643.69;4434072;32;32972;-80
2023/12/28 07:18:58;;;;;;;1.02;1.02;;;;;;;3.69;63.69;100646.34;4446901;32;33865;-79
2023/12/28 07:21:26;;;;;;;2.90;1.65;;;;;;;3.79;63.28;100642.81;4461851;32;33798;-81
2023/12/28 07:23:54;;;;;;;0.98;0.98;;;;;;;4.13;62.52;100634.91;4448212;32;33642;-79
2023/12/28 07:26:22;;;;;;;1.33;1.08;;;;;;;3.84;63.30;100646.28;4433961;32;33748;-80
2023/12/28 07:28:50;;;;;;;3.58;1.65;;;;;;;3.93;63.64;100639.31;4447785;32;32742;-80
2023/12/28 07:31:25;;;;;;;1.92;0.60;;;;;;;3.92;63.65;100646.28;4460264;32;32554;-81
2023/12/28 07:33:53;;;;;;;1.75;1.65;;;;;;;4.28;62.74;100645.28;4457964;32;33061;-81
2023/12/28 07:36:21;;;;;;;1.33;1.30;;;;;;;4.13;63.25;100663.66;4445312;32;33558;-81
2023/12/28 07:38:49;;;;;;;5.57;2.75;;;;;;;4.42;62.59;100652.19;4447404;32;33631;-81
2023/12/28 07:41:17;;;;;;;3.62;0.90;;;;;;;4.14;63.51;100657.53;4446878;32;33557;-81
2023/12/28 07:43:45;;;;;;;0.47;0.47;;;;;;;4.63;62.63;100652.94;4461613;32;33939;-82
2023/12/28 07:46:13;;;;;;;0.65;0.65;;;;;;;4.45;62.87;100657.41;4459797;32;33791;-81
2023/12/28 07:48:41;;;;;;;3.28;3.08;;;;;;;4.32;63.41;100662.69;4448791;32;33768;-81
2023/12/28 07:51:09;;;;;;;1.12;1.02;;;;;;;4.39;63.63;100657.44;4446216;32;33500;-81
2023/12/28 07:53:36;;;;;;;5.28;3.80;;;;;;;4.28;64.07;100666.19;4462219;32;31820;-82
2023/12/28 07:56:04;;;;;;;0.77;0.77;;;;;;;4.47;64.25;100660.87;4460492;32;32882;-83
2023/12/28 07:58:37;;;;;;;1.40;1.35;;;;;;;4.49;64.39;100666.97;4432576;32;32675;-83
2023/12/28 08:01:10;;;;;;;4.78;4.28;;;;;;;4.57;63.65;100650.37;4458534;32;34260;-83
2023/12/28 08:03:38;;;;;;;2.05;1.95;;;;;;;4.62;64.32;100647.72;4446931;32;32485;-82
2023/12/28 08:06:06;;;;;;;9.23;2.92;;;;;;;4.74;64.28;100650.25;4461305;32;34184;-82
2023/12/28 08:08:34;;;;;;;3.75;3.45;;;;;;;4.85;64.01;100648.44;4452596;32;33991;-82
2023/12/28 08:11:02;;;;;;;1.70;1.65;;;;;;;4.88;64.26;100643.16;4436321;32;33231;-82
2023/12/28 08:13:30;;;;;;;1.52;1.42;;;;;;;5.08;64.09;100645.66;4445104;32;30569;-81
2023/12/28 08:15:57;;;;;;;1.92;1.83;;;;;;;5.26;63.81;100641.13;4448524;32;32830;-82
2023/12/28 08:18:25;;;;;;;3.83;2.55;;;;;;;5.30;64.21;100635.00;4459414;32;33803;-82
2023/12/28 08:20:53;;;;;;;2.75;2.30;;;;;;;5.23;64.63;100634.19;4457797;32;33423;-82
2023/12/28 08:23:21;;;;;;;1.02;1.00;;;;;;;5.30;64.06;100635.88;4461509;32;32064;-82
2023/12/28 08:25:48;;;;;;;1.77;1.67;;;;;;;5.31;64.61;100640.22;4460896;32;33535;-82
2023/12/28 08:28:16;;;;;;;2.15;2.05;;;;;;;5.50;64.10;100642.66;4459034;32;34020;-82
2023/12/28 08:30:44;;;;;;;2.75;2.53;;;;;;;5.45;64.81;100644.47;4448345;32;34761;-82
2023/12/28 08:33:16;;;;;;;1.07;1.07;;;;;;;5.58;65.17;100640.84;4446369;32;32183;-82
2023/12/28 08:35:44;;;;;;;2.95;2.75;;;;;;;5.59;65.55;100647.81;4434462;32;32536;-82
2023/12/28 08:38:12;;;;;;;5.07;2.87;;;;;;;5.67;65.40;100656.47;4442122;32;32967;-82
2023/12/28 08:40:40;;;;;;;1.15;0.98;;;;;;;5.85;65.26;100651.06;4447805;32;33906;-82
2023/12/28 08:43:07;;;;;;;0.77;0.77;;;;;;;5.93;65.27;100653.59;4447015;32;32512;-81
2023/12/28 08:45:35;;;;;;;1.98;1.87;;;;;;;6.16;65.38;100650.72;4461918;32;32635;-82
2023/12/28 08:48:04;;;;;;;1.05;1.05;;;;;;;6.66;63.87;100647.44;4459729;32;34371;-83
2023/12/28 08:50:32;;;;;;;0.65;0.65;;;;;;;6.78;63.80;100651.63;4444680;32;34370;-83
2023/12/28 08:53:00;;;;;;;0.52;0.52;;;;;;;6.51;64.33;100654.66;4446658;32;32199;-83
2023/12/28 08:55:28;;;;;;;0.90;0.90;;;;;;;7.02;63.20;100653.03;4458922;32;35612;-82
2023/12/28 08:57:56;;;;;;;9.02;2.28;;;;;;;7.32;61.84;100650.81;4452538;32;32696;-83
2023/12/28 09:00:24;;;;;;;1.83;1.73;;;;;;;7.18;62.26;100648.41;4446429;32;32473;-83
2023/12/28 09:02:52;;;;;;;2.03;1.92;;;;;;;7.19;62.75;100647.53;4460985;32;32844;-82
2023/12/28 09:05:19;;;;;;;2.20;1.95;;;;;;;7.43;62.31;100641.84;4441827;32;33907;-82
2023/12/28 09:07:47;;;;;;;0.45;0.45;;;;;;;7.57;61.11;100638.13;4446510;32;34676;-82
2023/12/28 09:10:15;;;;;;;1.85;1.75;;;;;;;8.01;60.56;100633.78;4445692;32;33819;-82
2023/12/28 09:12:42;;;;;;;1.35;0.80;;;;;;;8.05;60.24;100638.06;4448686;32;33773;-84
2023/12/28 09:15:12;;;;;;;1.30;1.30;;;;;;;8.49;58.24;100629.28;4450022;32;33928;-83
2023/12/28 09:17:40;;;;;;;2.15;0.60;;;;;;;8.43;58.43;100634.69;4444986;32;32957;-83
2023/12/28 09:20:08;;;;;;;0.65;0.65;;;;;;;8.48;57.87;100629.31;4432450;32;32784;-83
2023/12/28 09:22:36;;;;;;;5.15;2.08;;;;;;;8.19;58.30;100625.50;4448031;32;31921;-84
2023/12/28 09:25:05;;;;;;;1.73;1.62;;;;;;;8.42;58.08;100614.53;4439581;32;33161;-83
2023/12/28 09:27:32;;;;;;;2.35;1.10;;;;;;;8.58;58.54;100609.78;4461426;32;33137;-81
2023/12/28 09:30:00;;;;;;;2.17;1.98;;;;;;;8.77;58.08;100603.19;4464373;32;33202;-81
2023/12/28 09:32:31;;;;;;;1.33;1.23;;;;;;;8.82;57.24;100606.59;4450096;32;31189;-81
2023/12/28 09:34:58;;;;;;;2.72;2.30;;;;;;;8.61;58.17;100604.47;4436998;32;33008;-80
2023/12/28 09:37:26;;;;;;;5.32;3.05;;;;;;;8.84;57.59;100596.91;4450692;32;34923;-81
2023/12/28 09:39:54;;;;;;;5.85;4.80;;;;;;;9.33;56.51;100594.81;4462487;32;34059;-80
2023/12/28 09:42:29;;;;;;;2.95;2.10;;;;;;;9.16;56.42;100597.84;4449156;32;33345;-81
2023/12/28 09:45:00;;;;;;;2.30;2.12;;;;;;;9.06;58.12;100591.94;4450153;32;33011;-80
2023/12/28 09:47:28;;;;;;;1.80;1.70;;;;;;;9.30;58.10;100577.28;4446300;32;32533;-81
2023/12/28 09:49:56;;;;;;;0.65;0.65;;;;;;;9.64;56.39;100581.69;4460604;32;34254;-80
2023/12/28 09:52:24;;;;;;;2.03;1.48;;;;;;;10.09;54.58;100566.31;4460503;32;31774;-81
2023/12/28 09:54:51;;;;;;;1.80;1.70;;;;;;;9.79;56.26;100556.66;4452550;32;34647;-80
2023/12/28 09:57:20;;;;;;;2.00;0.98;;;;;;;9.94;57.04;100562.34;4448157;32;33310;-81
2023/12/28 09:59:48;;;;;;;1.27;1.17;;;;;;;9.93;56.01;100555.34;4441514;32;33713;-81
2023/12/28 10:02:16;;;;;;;1.33;1.30;;;;;;;10.16;55.63;100556.41;4448128;32;32524;-81
2023/12/28 10:04:44;;;;;;;0.20;0.20;;;;;;;10.38;55.83;100546.97;4460409;32;33370;-80
2023/12/28 10:07:12;;;;;;;12.13;2.75;;;;;;;10.89;53.52;100540.94;4459099;32;34856;-80
2023/12/28 10:09:40;;;;;;;3.53;2.08;;;;;;;11.19;52.70;100538.19;4462431;32;34480;-81
2023/12/28 10:12:09;;;;;;;1.02;1.02;;;;;;;10.74;53.92;100544.09;4448612;32;33149;-80
2023/12/28 10:14:37;;;;;;;7.22;3.30;;;;;;;10.79;54.04;100526.31;4461031;32;32927;-80
2023/12/28 10:17:06;;;;;;;1.08;0.50;;;;;;;11.19;52.67;100514.38;4449818;32;33236;-80
2023/12/28 10:19:34;;;;;;;3.28;1.87;;;;;;;11.12;52.35;100512.91;4446700;32;34100;-79
2023/12/28 10:22:01;;;;;;;1.48;1.42;;;;;;;11.06;53.02;100513.06;4456532;32;34565;-80
2023/12/28 10:24:29;;;;;;;2.22;1.77;;;;;;;10.77;53.64;100520.22;4448786;32;33808;-80
2023/12/28 10:26:57;;;;;;;0.98;0.73;;;;;;;10.62;54.67;100523.34;4447300;32;33549;-80
2023/12/28 10:29:27;;;;;;;2.03;1.90;;;;;;;10.68;54.92;100518.75;4437720;32;32885;-81
2023/12/28 10:31:56;;;;;;;2.28;1.48;;;;;;;11.01;54.67;100513.22;4447544;32;33039;-81
2023/12/28 10:34:25;;;;;;;3.90;1.80;;;;;;;11.11;54.57;100505.84;4451928;32;32382;-80
2023/12/28 10:36:55;;;;;;;2.17;1.98;;;;;;;10.89;54.99;100505.75;4468280;32;33582;-81
2023/12/28 10:39:25;;;;;;;1.45;0.85;;;;;;;11.21;54.30;100502.00;4433461;32;33788;-80
2023/12/28 10:41:56;;;;;;;1.45;1.35;;;;;;;11.39;53.72;100498.69;4436606;32;33889;-80
2023/12/28 10:44:27;;;;;;;1.58;1.45;;;;;;;11.29;53.21;100494.63;4446883;32;33288;-81
2023/12/28 10:46:57;;;;;;;1.85;1.75;;;;;;;11.70;52.50;100485.19;4445059;32;32900;-81
2023/12/28 10:49:25;;;;;;;0.90;0.90;;;;;;;11.76;53.42;100494.69;4454499;32;32770;-81
2023/12/28 10:51:54;;;;;;;2.10;1.90;;;;;;;12.12;52.03;100486.31;4449837;32;31895;-81
2023/12/28 10:54:42;;;;;;;3.45;2.00;;;;;;;12.27;51.35;100483.91;4458955;32;34369;-80
2023/12/28 10:57:27;;;;;;;1.37;1.27;;;;;;;12.12;51.18;100486.31;4441094;32;32830;-81
2023/12/28 10:59:55;;;;;;;2.50;1.17;;;;;;;12.34;51.71;100481.88;4450353;32;33858;-81
2023/12/28 11:02:28;;;;;;;2.87;0.95;;;;;;;12.04;51.27;100471.56;4453393;32;32311;-81
2023/12/28 11:04:56;;;;;;;2.42;2.25;;;;;;;12.30;50.97;100475.00;4449072;32;32640;-81
2023/12/28 11:07:25;;;;;;;1.12;1.10;;;;;;;12.49;50.64;100464.53;4463153;32;35196;-81
2023/12/28 11:09:54;;;;;;;2.53;2.05;;;;;;;12.52;50.26;100472.31;4447824;32;33402;-81
2023/12/28 11:12:23;;;;;;;1.08;1.00;;;;;;;12.64;50.26;100469.19;4464172;32;33410;-81
2023/12/28 11:14:52;;;;;;;2.40;1.75;;;;;;;12.69;49.95;100450.44;4447938;32;32968;-82
2023/12/28 11:17:20;;;;;;;0.52;0.52;;;;;;;12.32;50.50;100446.66;4437527;32;33557;-81
2023/12/28 11:19:49;;;;;;;2.28;1.52;;;;;;;12.75;49.95;100444.88;4448052;32;34464;-80
2023/12/28 11:22:17;;;;;;;1.40;1.12;;;;;;;13.08;49.68;100450.50;4444698;32;32310;-81
2023/12/28 11:24:44;;;;;;;1.00;0.98;;;;;;;13.05;49.14;100453.28;4451828;32;32717;-81
2023/12/28 11:27:13;;;;;;;0.85;0.85;;;;;;;13.19;48.67;100442.09;4444972;32;33156;-81
2023/12/28 11:29:45;;;;;;;0.88;0.73;;;;;;;13.20;48.85;100441.19;4452546;32;33694;-81
2023/12/28 11:32:12;;;;;;;;;;;;;;;13.19;49.23;100439.44;4441841;32;33155;-81
2023/12/28 11:34:40;;;;;;;2.35;1.58;;;;;;;13.24;48.18;100434.81;4449069;32;33481;-81
2023/12/28 11:37:13;;;;;;;2.75;2.17;;;;;;;12.90;49.47;100443.34;4463141;32;32730;-80